createdAt,value
2023-02-04T00:01:09.814Z,95344.00
2023-02-04T00:03:39.134Z,95339.00
2023-02-04T00:06:06.427Z,95339.00
2023-02-04T00:08:37.522Z,95335.00
2023-02-04T00:11:08.119Z,95334.00
2023-02-04T00:13:37.281Z,95341.00
2023-02-04T00:16:04.610Z,95337.00
2023-02-04T00:18:31.582Z,95336.00
2023-02-04T00:20:58.467Z,95338.00
2023-02-04T00:23:25.451Z,95334.00
2023-02-04T00:25:54.774Z,95331.00
2023-02-04T00:28:22.845Z,95328.00
2023-02-04T00:30:52.223Z,95326.00
2023-02-04T00:33:20.086Z,95327.00
2023-02-04T00:35:46.969Z,95329.00
2023-02-04T00:38:14.165Z,95321.00
2023-02-04T00:40:41.153Z,95323.00
2023-02-04T00:43:08.048Z,95331.00
2023-02-04T00:45:35.091Z,95337.00
2023-02-04T00:48:02.049Z,95330.00
2023-02-04T00:50:31.322Z,95328.00
2023-02-04T00:53:01.861Z,95327.00
2023-02-04T00:55:28.796Z,95326.00
2023-02-04T00:57:55.725Z,95324.00
2023-02-04T01:00:25.193Z,95333.00
2023-02-04T01:02:52.141Z,95335.00
2023-02-04T01:05:19.038Z,95341.00
2023-02-04T01:07:45.998Z,95339.00
2023-02-04T01:10:16.244Z,95340.00
2023-02-04T01:12:43.995Z,95342.00
2023-02-04T01:15:14.323Z,95348.00
2023-02-04T01:17:41.750Z,95350.00
2023-02-04T01:20:10.654Z,95357.00
2023-02-04T01:22:37.550Z,95350.00
2023-02-04T01:25:04.883Z,95347.00
2023-02-04T01:27:31.779Z,95361.00
2023-02-04T01:29:58.832Z,95350.00
2023-02-04T01:32:25.734Z,95349.00
2023-02-04T01:34:57.191Z,95354.00
2023-02-04T01:37:26.634Z,95350.00
2023-02-04T01:39:55.684Z,95340.00
2023-02-04T01:42:23.680Z,95342.00
2023-02-04T01:44:53.593Z,95337.00
2023-02-04T01:47:21.060Z,95339.00
2023-02-04T01:49:55.640Z,95335.00
2023-02-04T01:52:28.553Z,95345.00
2023-02-04T01:55:00.540Z,95346.00
2023-02-04T01:57:27.649Z,95343.00
2023-02-04T01:59:59.220Z,95330.00
2023-02-04T02:02:50.501Z,95337.00
2023-02-04T02:05:23.615Z,95333.00
2023-02-04T02:07:53.997Z,95328.00
2023-02-04T02:10:21.808Z,95321.00
2023-02-04T02:12:49.410Z,95313.00
2023-02-04T02:15:17.650Z,95316.00
2023-02-04T02:17:50.212Z,95329.00
2023-02-04T02:20:21.439Z,95326.00
2023-02-04T02:22:50.356Z,95316.00
2023-02-04T02:25:19.858Z,95323.00
2023-02-04T02:27:47.009Z,95327.00
2023-02-04T02:30:17.721Z,95319.00
2023-02-04T02:32:46.855Z,95338.00
2023-02-04T02:35:15.062Z,95330.00
2023-02-04T02:37:44.881Z,95330.00
2023-02-04T02:40:15.461Z,95341.00
2023-02-04T02:42:46.025Z,95339.00
2023-02-04T02:45:25.483Z,95330.00
2023-02-04T02:47:53.131Z,95341.00
2023-02-04T02:50:25.372Z,95344.00
2023-02-04T02:52:53.345Z,95337.00
2023-02-04T02:55:25.847Z,95338.00
2023-02-04T02:57:54.941Z,95336.00
2023-02-04T03:00:28.573Z,95349.00
2023-02-04T03:03:31.558Z,95347.00
2023-02-04T03:06:06.666Z,95335.00
2023-02-04T03:08:33.931Z,95332.00
2023-02-04T03:11:01.002Z,95342.00
2023-02-04T03:13:28.001Z,95355.00
2023-02-04T03:15:58.454Z,95348.00
2023-02-04T03:18:31.214Z,95354.00
2023-02-04T03:21:01.034Z,95350.00
2023-02-04T03:23:27.949Z,95342.00
2023-02-04T03:25:55.017Z,95340.00
2023-02-04T03:28:24.423Z,95347.00
2023-02-04T03:30:56.725Z,95344.00
2023-02-04T03:33:31.616Z,95355.00
2023-02-04T03:36:04.518Z,95363.00
2023-02-04T03:38:34.465Z,95370.00
2023-02-04T03:41:01.912Z,95381.00
2023-02-04T03:43:33.695Z,95370.00
2023-02-04T03:46:00.838Z,95377.00
2023-02-04T03:48:27.709Z,95372.00
2023-02-04T03:50:56.736Z,95367.00
2023-02-04T03:53:28.172Z,95363.00
2023-02-04T03:55:55.080Z,95354.00
2023-02-04T03:58:22.399Z,95366.00
2023-02-04T04:00:51.727Z,95357.00
2023-02-04T04:03:20.881Z,95350.00
2023-02-04T04:05:47.806Z,95354.00
2023-02-04T04:08:14.677Z,95355.00
2023-02-04T04:10:44.086Z,95355.00
2023-02-04T04:13:13.450Z,95364.00
2023-02-04T04:15:42.673Z,95363.00
2023-02-04T04:18:09.557Z,95374.00
2023-02-04T04:20:41.243Z,95367.00
2023-02-04T04:23:12.863Z,95357.00
2023-02-04T04:25:39.615Z,95358.00
2023-02-04T04:28:09.085Z,95364.00
2023-02-04T04:30:36.060Z,95365.00
2023-02-04T04:33:05.218Z,95356.00
2023-02-04T04:35:35.149Z,95373.00
2023-02-04T04:38:03.101Z,95369.00
2023-02-04T04:40:30.078Z,95377.00
2023-02-04T04:43:01.792Z,95379.00
2023-02-04T04:45:28.579Z,95384.00
2023-02-04T04:47:59.985Z,95378.00
2023-02-04T04:50:27.004Z,95375.00
2023-02-04T04:52:53.900Z,95377.00
2023-02-04T04:55:22.964Z,95381.00
2023-02-04T04:57:51.942Z,95374.00
2023-02-04T05:00:21.451Z,95378.00
2023-02-04T05:02:51.144Z,95380.00
2023-02-04T05:05:18.075Z,95382.00
2023-02-04T05:07:44.945Z,95383.00
2023-02-04T05:10:19.202Z,95381.00
2023-02-04T05:12:48.599Z,95375.00
2023-02-04T05:15:20.152Z,95387.00
2023-02-04T05:17:46.943Z,95391.00
2023-02-04T05:20:13.957Z,95382.00
2023-02-04T05:22:43.343Z,95386.00
2023-02-04T05:25:13.294Z,95385.00
2023-02-04T05:27:43.233Z,95379.00
2023-02-04T05:30:14.360Z,95389.00
2023-02-04T05:32:41.982Z,95395.00
2023-02-04T05:35:09.524Z,95393.00
2023-02-04T05:37:36.424Z,95394.00
2023-02-04T05:40:06.215Z,95399.00
2023-02-04T05:42:35.392Z,95393.00
2023-02-04T05:45:02.349Z,95404.00
2023-02-04T05:47:29.196Z,95396.00
2023-02-04T05:49:56.070Z,95419.00
2023-02-04T05:52:27.597Z,95415.00
2023-02-04T05:54:54.395Z,95417.00
2023-02-04T05:57:24.328Z,95416.00
2023-02-04T05:59:51.206Z,95409.00
2023-02-04T06:02:18.540Z,95417.00
2023-02-04T06:04:45.574Z,95425.00
2023-02-04T06:07:14.674Z,95422.00
2023-02-04T06:09:44.837Z,95412.00
2023-02-04T06:12:11.817Z,95434.00
2023-02-04T06:14:38.786Z,95430.00
2023-02-04T06:17:05.678Z,95425.00
2023-02-04T06:19:35.648Z,95433.00
2023-02-04T06:22:02.598Z,95429.00
2023-02-04T06:24:32.656Z,95431.00
2023-02-04T06:26:59.531Z,95430.00
2023-02-04T06:29:26.396Z,95429.00
2023-02-04T06:31:55.876Z,95435.00
2023-02-04T06:34:22.789Z,95436.00
2023-02-04T06:36:51.934Z,95447.00
2023-02-04T06:39:18.814Z,95448.00
2023-02-04T06:41:47.736Z,95459.00
2023-02-04T06:44:16.685Z,95461.00
2023-02-04T06:46:48.058Z,95446.00
2023-02-04T06:49:17.209Z,95452.00
2023-02-04T06:51:49.387Z,95452.00
2023-02-04T06:54:16.343Z,95447.00
2023-02-04T06:56:43.733Z,95459.00
2023-02-04T06:59:13.293Z,95460.00
2023-02-04T07:01:40.243Z,95458.00
2023-02-04T07:04:09.354Z,95462.00
2023-02-04T07:06:41.169Z,95460.00
2023-02-04T07:09:08.035Z,95467.00
2023-02-04T07:11:34.995Z,95470.00
2023-02-04T07:14:04.056Z,95476.00
2023-02-04T07:16:33.011Z,95483.00
2023-02-04T07:18:59.935Z,95488.00
2023-02-04T07:21:27.373Z,95492.00
2023-02-04T07:23:54.335Z,95487.00
2023-02-04T07:26:21.578Z,95499.00
2023-02-04T07:28:50.858Z,95496.00
2023-02-04T07:31:22.497Z,95497.00
2023-02-04T07:33:51.803Z,95506.00
2023-02-04T07:36:21.318Z,95514.00
2023-02-04T07:38:48.204Z,95515.00
2023-02-04T07:41:15.104Z,95523.00
2023-02-04T07:43:44.623Z,95530.00
2023-02-04T07:46:11.556Z,95525.00
2023-02-04T07:48:43.043Z,95526.00
2023-02-04T07:51:12.165Z,95547.00
2023-02-04T07:53:41.326Z,95546.00
2023-02-04T07:56:10.640Z,95538.00
2023-02-04T07:58:37.629Z,95537.00
2023-02-04T08:01:07.771Z,95534.00
2023-02-04T08:03:35.390Z,95540.00
2023-02-04T08:06:03.455Z,95540.00
2023-02-04T08:08:30.377Z,95537.00
2023-02-04T08:11:02.398Z,95536.00
2023-02-04T08:13:31.844Z,95523.00
2023-02-04T08:15:58.854Z,95536.00
2023-02-04T08:18:28.907Z,95538.00
2023-02-04T08:20:55.736Z,95559.00
2023-02-04T08:23:23.173Z,95561.00
2023-02-04T08:25:52.617Z,95566.00
2023-02-04T08:28:22.161Z,95571.00
2023-02-04T08:30:49.112Z,95562.00
2023-02-04T08:33:18.539Z,95578.00
2023-02-04T08:35:45.490Z,95566.00
2023-02-04T08:38:12.408Z,95553.00
2023-02-04T08:40:41.699Z,95575.00
2023-02-04T08:43:11.333Z,95564.00
2023-02-04T08:45:43.110Z,95567.00
2023-02-04T08:48:17.130Z,95563.00
2023-02-04T08:50:44.053Z,95559.00
2023-02-04T08:53:13.794Z,95567.00
2023-02-04T08:55:40.742Z,95558.00
2023-02-04T08:58:07.792Z,95553.00
2023-02-04T09:00:35.079Z,95565.00
2023-02-04T09:03:07.755Z,95566.00
2023-02-04T09:05:39.913Z,95560.00
2023-02-04T09:08:06.793Z,95569.00
2023-02-04T09:10:33.989Z,95581.00
2023-02-04T09:13:01.118Z,95584.00
2023-02-04T09:15:28.377Z,95593.00
2023-02-04T09:18:04.697Z,95597.00
2023-02-04T09:20:32.010Z,95593.00
2023-02-04T09:23:01.656Z,95594.00
2023-02-04T09:25:28.659Z,95596.00
2023-02-04T09:27:55.550Z,95591.00
2023-02-04T09:30:22.418Z,95588.00
2023-02-04T09:32:49.360Z,95588.00
2023-02-04T09:35:19.073Z,95594.00
2023-02-04T09:37:45.948Z,95590.00
2023-02-04T09:40:22.319Z,95599.00
2023-02-04T09:42:52.217Z,95595.00
2023-02-04T09:45:25.556Z,95598.00
2023-02-04T09:47:53.685Z,95593.00
2023-02-04T09:50:28.923Z,95606.00
2023-02-04T09:52:59.477Z,95604.00
2023-02-04T09:55:35.500Z,95600.00
2023-02-04T09:58:05.774Z,95605.00
2023-02-04T10:00:35.273Z,95603.00
2023-02-04T10:03:14.522Z,95599.00
2023-02-04T10:05:43.952Z,95612.00
2023-02-04T10:08:28.218Z,95607.00
2023-02-04T10:10:58.291Z,95609.00
2023-02-04T10:13:38.323Z,95611.00
2023-02-04T10:16:18.430Z,95613.00
2023-02-04T10:18:46.032Z,95607.00
2023-02-04T10:21:32.994Z,95603.00
2023-02-04T10:24:03.832Z,95609.00
2023-02-04T10:26:32.914Z,95601.00
2023-02-04T10:29:14.914Z,95593.00
2023-02-04T10:31:45.421Z,95598.00
2023-02-04T10:34:14.067Z,95599.00
2023-02-04T10:36:44.185Z,95596.00
2023-02-04T10:39:19.973Z,95600.00
2023-02-04T10:41:49.980Z,95593.00
2023-02-04T10:44:32.137Z,95598.00
2023-02-04T10:47:13.734Z,95589.00
2023-02-04T10:49:40.777Z,95584.00
2023-02-04T10:52:18.536Z,95593.00
2023-02-04T10:54:47.713Z,95583.00
2023-02-04T10:57:32.962Z,95585.00
2023-02-04T11:00:02.459Z,95586.00
2023-02-04T11:02:45.934Z,95585.00
2023-02-04T11:05:31.047Z,95597.00
2023-02-04T11:07:58.321Z,95590.00
2023-02-04T11:10:32.074Z,95583.00
2023-02-04T11:13:03.275Z,95587.00
2023-02-04T11:15:49.858Z,95578.00
2023-02-04T11:18:20.671Z,95580.00
2023-02-04T11:20:57.202Z,95582.00
2023-02-04T11:23:27.023Z,95575.00
2023-02-04T11:26:22.855Z,95576.00
2023-02-04T11:28:59.831Z,95574.00
2023-02-04T11:31:40.607Z,95577.00
2023-02-04T11:34:15.901Z,95580.00
2023-02-04T11:37:13.845Z,95581.00
2023-02-04T11:39:45.136Z,95588.00
2023-02-04T11:42:18.920Z,95604.00
2023-02-04T11:45:00.494Z,95601.00
2023-02-04T11:47:35.661Z,95602.00
2023-02-04T11:50:20.240Z,95602.00
2023-02-04T11:52:47.091Z,95593.00
2023-02-04T11:55:14.162Z,95597.00
2023-02-04T11:57:44.936Z,95601.00
2023-02-04T12:00:17.841Z,95603.00
2023-02-04T12:02:51.707Z,95603.00
2023-02-04T12:05:20.713Z,95600.00
2023-02-04T12:07:51.749Z,95605.00
2023-02-04T12:10:18.589Z,95599.00
2023-02-04T12:12:57.648Z,95597.00
2023-02-04T12:15:36.547Z,95595.00
2023-02-04T12:18:09.891Z,95602.00
2023-02-04T12:20:39.511Z,95603.00
2023-02-04T12:23:06.581Z,95601.00
2023-02-04T12:25:33.871Z,95597.00
2023-02-04T12:28:01.041Z,95586.00
2023-02-04T12:30:28.003Z,95597.00
2023-02-04T12:32:57.512Z,95594.00
2023-02-04T12:35:24.419Z,95596.00
2023-02-04T12:37:51.347Z,95600.00
2023-02-04T12:40:22.116Z,95598.00
2023-02-04T12:42:49.721Z,95607.00
2023-02-04T12:45:19.945Z,95610.00
2023-02-04T12:47:52.114Z,95611.00
2023-02-04T12:50:22.633Z,95610.00
2023-02-04T12:52:54.994Z,95601.00
2023-02-04T12:55:23.891Z,95608.00
2023-02-04T12:57:51.291Z,95614.00
2023-02-04T13:00:20.843Z,95611.00
2023-02-04T13:02:48.161Z,95617.00
2023-02-04T13:05:17.062Z,95617.00
2023-02-04T13:07:46.321Z,95614.00
2023-02-04T13:10:16.880Z,95618.00
2023-02-04T13:12:44.113Z,95619.00
2023-02-04T13:15:13.688Z,95610.00
2023-02-04T13:17:43.642Z,95615.00
2023-02-04T13:20:12.609Z,95622.00
2023-02-04T13:22:39.722Z,95616.00
2023-02-04T13:25:07.217Z,95612.00
2023-02-04T13:27:36.875Z,95615.00
2023-02-04T13:30:06.447Z,95610.00
2023-02-04T13:32:35.963Z,95633.00
2023-02-04T13:35:07.831Z,95629.00
2023-02-04T13:37:34.801Z,95630.00
2023-02-04T13:40:01.689Z,95634.00
2023-02-04T13:42:28.707Z,95633.00
2023-02-04T13:44:55.651Z,95640.00
2023-02-04T13:47:22.747Z,95645.00
2023-02-04T13:49:49.816Z,95650.00
2023-02-04T13:52:18.447Z,95647.00
2023-02-04T13:54:46.089Z,95647.00
2023-02-04T13:57:13.048Z,95633.00
2023-02-04T13:59:42.981Z,95646.00
2023-02-04T14:02:10.216Z,95640.00
2023-02-04T14:04:43.929Z,95635.00
2023-02-04T14:07:11.039Z,95630.00
2023-02-04T14:09:40.456Z,95648.00
2023-02-04T14:12:07.528Z,95650.00
2023-02-04T14:14:34.467Z,95647.00
2023-02-04T14:17:05.953Z,95648.00
2023-02-04T14:19:33.227Z,95651.00
2023-02-04T14:22:00.151Z,95658.00
2023-02-04T14:24:29.157Z,95657.00
2023-02-04T14:26:58.797Z,95648.00
2023-02-04T14:29:30.232Z,95638.00
2023-02-04T14:31:57.064Z,95648.00
2023-02-04T14:34:28.524Z,95651.00
2023-02-04T14:36:57.722Z,95644.00
2023-02-04T14:39:24.603Z,95657.00
2023-02-04T14:41:51.478Z,95657.00
2023-02-04T14:44:21.040Z,95659.00
2023-02-04T14:46:49.166Z,95658.00
2023-02-04T14:49:17.239Z,95664.00
2023-02-04T14:51:44.516Z,95668.00
2023-02-04T14:54:14.725Z,95677.00
2023-02-04T14:56:41.858Z,95667.00
2023-02-04T14:59:11.080Z,95675.00
2023-02-04T15:01:38.044Z,95686.00
2023-02-04T15:04:05.046Z,95684.00
2023-02-04T15:06:31.917Z,95689.00
2023-02-04T15:09:01.091Z,95694.00
2023-02-04T15:11:28.051Z,95691.00
2023-02-04T15:13:54.971Z,95689.00
2023-02-04T15:16:21.928Z,95692.00
2023-02-04T15:18:53.893Z,95687.00
2023-02-04T15:21:25.444Z,95691.00
2023-02-04T15:23:52.289Z,95695.00
2023-02-04T15:26:22.389Z,95691.00
2023-02-04T15:28:49.210Z,95681.00
2023-02-04T15:31:16.236Z,95680.00
2023-02-04T15:33:43.291Z,95691.00
2023-02-04T15:36:10.266Z,95686.00
2023-02-04T15:38:37.209Z,95691.00
2023-02-04T15:41:07.208Z,95683.00
2023-02-04T15:43:36.411Z,95677.00
2023-02-04T15:46:03.454Z,95681.00
2023-02-04T15:48:30.536Z,95677.00
2023-02-04T15:51:02.159Z,95685.00
2023-02-04T15:53:28.946Z,95689.00
2023-02-04T15:55:58.126Z,95695.00
2023-02-04T15:58:27.574Z,95695.00
2023-02-04T16:00:54.447Z,95695.00
2023-02-04T16:03:21.318Z,95705.00
2023-02-04T16:05:55.429Z,95701.00
2023-02-04T16:08:22.570Z,95699.00
2023-02-04T16:10:54.101Z,95709.00
2023-02-04T16:13:21.356Z,95704.00
2023-02-04T16:15:52.505Z,95717.00
2023-02-04T16:18:19.413Z,95710.00
2023-02-04T16:20:46.294Z,95711.00
2023-02-04T16:23:15.707Z,95730.00
2023-02-04T16:25:42.607Z,95728.00
2023-02-04T16:28:09.610Z,95731.00
2023-02-04T16:30:36.505Z,95719.00
2023-02-04T16:33:03.496Z,95726.00
2023-02-04T16:35:32.663Z,95731.00
2023-02-04T16:38:02.410Z,95732.00
2023-02-04T16:40:29.302Z,95730.00
2023-02-04T16:42:58.247Z,95740.00
2023-02-04T16:45:25.180Z,95741.00
2023-02-04T16:47:57.022Z,95758.00
2023-02-04T16:50:26.512Z,95750.00
2023-02-04T16:52:58.084Z,95752.00
2023-02-04T16:55:27.750Z,95748.00
2023-02-04T16:57:54.640Z,95725.00
2023-02-04T17:00:21.995Z,95747.00
2023-02-04T17:02:49.021Z,95751.00
2023-02-04T17:05:18.528Z,95757.00
2023-02-04T17:07:45.410Z,95759.00
2023-02-04T17:10:12.297Z,95759.00
2023-02-04T17:12:42.300Z,95759.00
2023-02-04T17:15:09.717Z,95766.00
2023-02-04T17:17:39.653Z,95766.00
2023-02-04T17:20:06.790Z,95772.00
2023-02-04T17:22:34.844Z,95770.00
2023-02-04T17:25:07.434Z,95776.00
2023-02-04T17:27:34.252Z,95777.00
2023-02-04T17:30:03.688Z,95777.00
2023-02-04T17:32:31.317Z,95784.00
2023-02-04T17:34:58.840Z,95783.00
2023-02-04T17:37:26.184Z,95781.00
2023-02-04T17:39:53.452Z,95776.00
2023-02-04T17:42:20.399Z,95784.00
2023-02-04T17:44:47.325Z,95783.00
2023-02-04T17:47:16.324Z,95772.00
2023-02-04T17:49:43.317Z,95784.00
2023-02-04T17:52:10.227Z,95790.00
2023-02-04T17:54:37.228Z,95784.00
2023-02-04T17:57:18.957Z,95787.00
2023-02-04T17:59:46.064Z,95793.00
2023-02-04T18:02:32.320Z,95796.00
2023-02-04T18:05:07.720Z,95791.00
2023-02-04T18:07:37.168Z,95795.00
2023-02-04T18:10:29.264Z,95804.00
2023-02-04T18:12:57.428Z,95807.00
2023-02-04T18:15:29.539Z,95811.00
2023-02-04T18:18:26.115Z,95812.00
2023-02-04T18:21:21.696Z,95812.00
2023-02-04T18:24:08.646Z,95818.00
2023-02-04T18:26:44.286Z,95818.00
2023-02-04T18:29:26.616Z,95812.00
2023-02-04T18:32:00.619Z,95816.00
2023-02-04T18:34:43.866Z,95813.00
2023-02-04T18:37:32.630Z,95822.00
2023-02-04T18:40:31.370Z,95817.00
2023-02-04T18:43:26.749Z,95810.00
2023-02-04T18:45:56.927Z,95808.00
2023-02-04T18:48:23.715Z,95818.00
2023-02-04T18:50:56.730Z,95820.00
2023-02-04T18:53:25.581Z,95815.00
2023-02-04T18:55:55.159Z,95815.00
2023-02-04T18:58:27.957Z,95816.00
2023-02-04T19:01:06.334Z,95816.00
2023-02-04T19:03:48.988Z,95807.00
2023-02-04T19:06:29.096Z,95810.00
2023-02-04T19:09:12.348Z,95810.00
2023-02-04T19:11:58.861Z,95811.00
2023-02-04T19:14:40.216Z,95805.00
2023-02-04T19:17:24.323Z,95811.00
2023-02-04T19:20:08.189Z,95810.00
2023-02-04T19:22:49.697Z,95812.00
2023-02-04T19:25:33.155Z,95812.00
2023-02-04T19:28:06.354Z,95805.00
2023-02-04T19:30:43.822Z,95808.00
2023-02-04T19:33:18.254Z,95807.00
2023-02-04T19:35:48.059Z,95806.00
2023-02-04T19:38:43.035Z,95805.00
2023-02-04T19:41:53.940Z,95810.00
2023-02-04T19:44:43.209Z,95812.00
2023-02-04T19:47:35.315Z,95804.00
2023-02-04T19:50:13.818Z,95813.00
2023-02-04T19:52:49.958Z,95810.00
2023-02-04T19:55:44.752Z,95805.00
2023-02-04T19:58:25.893Z,95806.00
2023-02-04T20:01:00.097Z,95809.00
2023-02-04T20:03:42.526Z,95815.00
2023-02-04T20:06:37.870Z,95805.00
2023-02-04T20:09:33.749Z,95813.00
2023-02-04T20:12:16.357Z,95821.00
2023-02-04T20:14:50.082Z,95820.00
2023-02-04T20:17:37.307Z,95815.00
2023-02-04T20:20:26.051Z,95813.00
2023-02-04T20:22:59.283Z,95820.00
2023-02-04T20:25:38.467Z,95824.00
2023-02-04T20:28:18.904Z,95834.00
2023-02-04T20:30:48.454Z,95837.00
2023-02-04T20:33:50.644Z,95841.00
2023-02-04T20:36:42.107Z,95840.00
2023-02-04T20:39:09.061Z,95846.00
2023-02-04T20:41:40.106Z,95851.00
2023-02-04T20:44:20.330Z,95848.00
2023-02-04T20:46:49.309Z,95864.00
2023-02-04T20:49:25.748Z,95861.00
2023-02-04T20:52:01.719Z,95858.00
2023-02-04T20:54:33.292Z,95860.00
2023-02-04T20:57:15.816Z,95860.00
2023-02-04T20:59:42.898Z,95861.00
2023-02-04T21:02:24.271Z,95855.00
2023-02-04T21:04:53.976Z,95867.00
2023-02-04T21:07:25.259Z,95869.00
2023-02-04T21:09:54.748Z,95865.00
2023-02-04T21:12:21.821Z,95863.00
2023-02-04T21:14:51.399Z,95865.00
2023-02-04T21:17:18.316Z,95873.00
2023-02-04T21:19:45.286Z,95870.00
2023-02-04T21:22:12.203Z,95876.00
2023-02-04T21:24:44.571Z,95871.00
2023-02-04T21:27:11.438Z,95869.00
2023-02-04T21:29:38.316Z,95874.00
2023-02-04T21:32:08.452Z,95882.00
2023-02-04T21:34:35.336Z,95876.00
2023-02-04T21:37:02.373Z,95871.00
2023-02-04T21:39:29.281Z,95870.00
2023-02-04T21:42:10.124Z,95873.00
2023-02-04T21:44:40.297Z,95858.00
2023-02-04T21:47:07.238Z,95869.00
2023-02-04T21:49:34.182Z,95873.00
2023-02-04T21:52:03.336Z,95873.00
2023-02-04T21:54:30.161Z,95871.00
2023-02-04T21:57:01.952Z,95873.00
2023-02-04T21:59:31.464Z,95876.00
2023-02-04T22:01:58.301Z,95869.00
2023-02-04T22:04:30.373Z,95867.00
2023-02-04T22:06:57.234Z,95877.00
2023-02-04T22:09:24.166Z,95865.00
2023-02-04T22:11:51.080Z,95878.00
2023-02-04T22:14:19.243Z,95873.00
2023-02-04T22:16:48.383Z,95887.00
2023-02-04T22:19:17.806Z,95875.00
2023-02-04T22:21:44.958Z,95879.00
2023-02-04T22:24:14.332Z,95874.00
2023-02-04T22:26:41.620Z,95868.00
2023-02-04T22:29:10.583Z,95871.00
2023-02-04T22:31:37.494Z,95861.00
2023-02-04T22:34:05.511Z,95872.00
2023-02-04T22:36:32.496Z,95864.00
2023-02-04T22:38:59.333Z,95870.00
2023-02-04T22:41:28.633Z,95874.00
2023-02-04T22:43:55.493Z,95877.00
2023-02-04T22:46:22.461Z,95880.00
2023-02-04T22:48:51.937Z,95867.00
2023-02-04T22:51:20.886Z,95884.00
2023-02-04T22:53:50.341Z,95871.00
2023-02-04T22:56:17.247Z,95882.00
2023-02-04T22:58:46.473Z,95874.00
2023-02-04T23:01:16.039Z,95883.00
2023-02-04T23:03:42.952Z,95883.00
2023-02-04T23:06:09.909Z,95876.00
2023-02-04T23:08:37.059Z,95882.00
2023-02-04T23:11:06.447Z,95874.00
2023-02-04T23:13:33.438Z,95876.00
2023-02-04T23:16:00.345Z,95881.00
2023-02-04T23:18:27.256Z,95882.00
2023-02-04T23:20:54.243Z,95880.00
2023-02-04T23:23:21.151Z,95901.00
2023-02-04T23:25:48.825Z,95891.00
2023-02-04T23:28:18.875Z,95898.00
2023-02-04T23:30:45.810Z,95888.00
2023-02-04T23:33:12.771Z,95893.00
2023-02-04T23:35:41.874Z,95886.00
2023-02-04T23:38:11.052Z,95886.00
2023-02-04T23:40:40.542Z,95890.00
2023-02-04T23:43:09.361Z,95880.00
2023-02-04T23:45:37.874Z,95878.00
2023-02-04T23:48:07.868Z,95886.00
2023-02-04T23:50:37.427Z,95873.00
2023-02-04T23:53:04.420Z,95886.00
2023-02-04T23:55:32.077Z,95880.00
2023-02-04T23:57:59.097Z,95883.00
